createdAt,value
2018-11-04T00:01:59.116Z,72.89
2018-11-04T00:04:27.303Z,72.24
2018-11-04T00:06:55.469Z,72.24
2018-11-04T00:09:23.620Z,71.70
2018-11-04T00:11:51.756Z,71.24
2018-11-04T00:14:20.036Z,71.66
2018-11-04T00:16:48.183Z,71.29
2018-11-04T00:19:16.348Z,71.44
2018-11-04T00:21:44.523Z,71.38
2018-11-04T00:24:12.767Z,71.50
2018-11-04T00:26:40.805Z,71.47
2018-11-04T00:29:09.045Z,72.97
2018-11-04T00:31:37.182Z,72.15
2018-11-04T00:34:05.759Z,72.18
2018-11-04T00:36:33.918Z,72.45
2018-11-04T00:39:02.298Z,72.26
2018-11-04T00:41:30.450Z,72.08
2018-11-04T00:43:58.595Z,72.08
2018-11-04T00:46:26.746Z,71.76
2018-11-04T00:48:54.894Z,71.57
2018-11-04T00:51:23.058Z,71.89
2018-11-04T00:53:51.186Z,71.82
2018-11-04T00:56:19.363Z,71.96
2018-11-04T00:58:47.496Z,71.53
2018-11-04T01:01:15.662Z,71.71
2018-11-04T01:03:43.882Z,72.12
2018-11-04T01:06:12.016Z,72.15
2018-11-04T01:08:40.163Z,71.98
2018-11-04T01:11:08.323Z,71.85
2018-11-04T01:13:36.485Z,71.83
2018-11-04T01:16:04.626Z,71.15
2018-11-04T01:18:32.778Z,71.44
2018-11-04T01:21:00.973Z,71.04
2018-11-04T01:23:29.087Z,71.20
2018-11-04T01:26:04.149Z,71.79
2018-11-04T01:28:32.307Z,72.13
2018-11-04T01:31:00.438Z,72.36
2018-11-04T01:33:28.591Z,72.56
2018-11-04T01:35:56.765Z,72.34
2018-11-04T01:38:24.919Z,71.88
2018-11-04T01:40:53.071Z,71.07
2018-11-04T01:43:21.230Z,71.18
2018-11-04T01:45:49.387Z,71.70
2018-11-04T01:48:17.587Z,71.37
2018-11-04T01:50:45.751Z,71.92
2018-11-04T01:53:13.883Z,72.02
2018-11-04T01:55:42.035Z,71.64
2018-11-04T01:58:10.198Z,71.94
2018-11-04T02:00:38.383Z,71.04
2018-11-04T02:03:06.558Z,71.10
2018-11-04T02:05:34.709Z,71.32
2018-11-04T02:08:02.852Z,72.11
2018-11-04T02:10:31.036Z,72.41
2018-11-04T02:12:59.206Z,72.02
2018-11-04T02:15:27.410Z,71.92
2018-11-04T02:17:55.574Z,72.19
2018-11-04T02:20:23.749Z,71.27
2018-11-04T02:22:51.909Z,71.24
2018-11-04T02:25:20.076Z,71.56
2018-11-04T02:27:48.224Z,71.99
2018-11-04T02:30:17.267Z,71.45
2018-11-04T02:32:46.170Z,71.29
2018-11-04T02:35:15.054Z,71.61
2018-11-04T02:37:43.211Z,71.63
2018-11-04T02:40:12.011Z,71.58
2018-11-04T02:42:40.178Z,71.15
2018-11-04T02:45:08.563Z,71.41
2018-11-04T02:47:37.142Z,71.66
2018-11-04T02:50:05.899Z,72.44
2018-11-04T02:52:34.115Z,72.33
2018-11-04T02:55:02.315Z,72.74
2018-11-04T02:57:30.462Z,72.63
2018-11-04T02:59:58.616Z,72.33
2018-11-04T03:02:26.755Z,71.36
2018-11-04T03:05:01.618Z,71.49
2018-11-04T03:07:29.751Z,72.05
2018-11-04T03:09:57.927Z,72.48
2018-11-04T03:12:26.074Z,72.44
2018-11-04T03:14:54.211Z,72.39
2018-11-04T03:17:22.371Z,72.20
2018-11-04T03:19:50.542Z,72.21
2018-11-04T03:22:18.690Z,73.02
2018-11-04T03:24:46.879Z,73.18
2018-11-04T03:27:15.000Z,73.46
2018-11-04T03:29:43.236Z,73.72
2018-11-04T03:32:11.422Z,73.91
2018-11-04T03:34:39.561Z,73.74
2018-11-04T03:37:07.759Z,73.59
2018-11-04T03:39:35.918Z,73.79
2018-11-04T03:42:04.106Z,73.83
2018-11-04T03:44:32.252Z,73.11
2018-11-04T03:47:00.389Z,73.99
2018-11-04T03:49:28.551Z,73.80
2018-11-04T03:51:56.695Z,73.33
2018-11-04T03:54:24.907Z,74.34
2018-11-04T03:56:53.019Z,73.79
2018-11-04T03:59:21.182Z,74.20
2018-11-04T04:01:49.348Z,73.50
2018-11-04T04:04:17.495Z,74.13
2018-11-04T04:06:45.652Z,73.92
2018-11-04T04:09:14.044Z,73.97
2018-11-04T04:11:42.234Z,74.14
2018-11-04T04:14:10.386Z,73.88
2018-11-04T04:16:38.530Z,74.38
2018-11-04T04:19:06.659Z,74.64
2018-11-04T04:21:34.821Z,74.33
2018-11-04T04:24:02.950Z,74.26
2018-11-04T04:26:31.120Z,74.49
2018-11-04T04:28:59.304Z,75.08
2018-11-04T04:31:27.481Z,75.15
2018-11-04T04:33:55.622Z,74.67
2018-11-04T04:36:23.973Z,75.29
2018-11-04T04:38:52.142Z,75.02
2018-11-04T04:41:20.308Z,75.48
2018-11-04T04:43:48.489Z,74.52
2018-11-04T04:46:16.616Z,75.32
2018-11-04T04:48:44.785Z,75.50
2018-11-04T04:51:12.942Z,75.67
2018-11-04T04:53:41.101Z,75.91
2018-11-04T04:56:09.279Z,75.54
2018-11-04T04:58:37.434Z,75.37
2018-11-04T05:01:05.622Z,75.59
2018-11-04T05:03:33.767Z,74.99
2018-11-04T05:06:01.940Z,75.96
2018-11-04T05:08:30.099Z,75.91
2018-11-04T05:10:58.259Z,76.76
2018-11-04T05:13:26.407Z,75.57
2018-11-04T05:15:54.600Z,76.36
2018-11-04T05:18:22.751Z,76.19
2018-11-04T05:20:50.897Z,76.36
2018-11-04T05:23:19.087Z,76.02
2018-11-04T05:25:47.242Z,76.40
2018-11-04T05:28:15.391Z,76.53
2018-11-04T05:30:43.551Z,76.10
2018-11-04T05:33:11.699Z,76.75
2018-11-04T05:35:39.859Z,76.24
2018-11-04T05:38:08.033Z,76.03
2018-11-04T05:40:36.187Z,76.58
2018-11-04T05:43:04.354Z,76.79
2018-11-04T05:45:32.487Z,76.47
2018-11-04T05:48:00.639Z,76.42
2018-11-04T05:50:28.823Z,76.64
2018-11-04T05:52:56.983Z,76.23
2018-11-04T05:55:25.140Z,75.94
2018-11-04T05:57:53.323Z,76.23
2018-11-04T06:00:21.487Z,76.87
2018-11-04T06:02:49.654Z,76.62
2018-11-04T06:05:17.820Z,76.48
2018-11-04T06:07:46.087Z,76.86
2018-11-04T06:10:14.216Z,77.32
2018-11-04T06:12:42.358Z,76.70
2018-11-04T06:15:10.527Z,77.61
2018-11-04T06:17:38.667Z,77.19
2018-11-04T06:20:08.482Z,77.57
2018-11-04T06:22:36.663Z,77.79
2018-11-04T06:25:05.168Z,77.57
2018-11-04T06:27:33.907Z,77.96
2018-11-04T06:30:02.105Z,77.68
2018-11-04T06:32:30.251Z,77.35
2018-11-04T06:34:58.399Z,77.99
2018-11-04T06:37:26.541Z,78.49
2018-11-04T06:39:54.714Z,78.18
2018-11-04T06:42:22.867Z,78.25
2018-11-04T06:44:51.043Z,78.26
2018-11-04T06:47:19.225Z,77.87
2018-11-04T06:49:47.359Z,78.69
2018-11-04T06:52:15.546Z,78.46
2018-11-04T06:54:43.691Z,78.62
2018-11-04T06:57:11.862Z,78.87
2018-11-04T06:59:40.011Z,78.45
2018-11-04T07:02:08.338Z,78.94
2018-11-04T07:04:36.595Z,79.31
2018-11-04T07:07:04.796Z,78.94
2018-11-04T07:09:32.950Z,78.98
2018-11-04T07:12:01.109Z,78.80
2018-11-04T07:14:29.712Z,79.50
2018-11-04T07:16:57.885Z,79.73
2018-11-04T07:19:26.181Z,79.76
2018-11-04T07:21:54.338Z,79.64
2018-11-04T07:24:22.506Z,80.10
2018-11-04T07:26:50.742Z,79.30
2018-11-04T07:29:18.899Z,80.53
2018-11-04T07:31:47.060Z,80.46
2018-11-04T07:34:15.281Z,79.89
2018-11-04T07:36:43.471Z,80.36
2018-11-04T07:39:12.989Z,80.65
2018-11-04T07:41:41.307Z,80.60
2018-11-04T07:44:09.798Z,80.71
2018-11-04T07:46:37.915Z,80.96
2018-11-04T07:49:06.238Z,81.24
2018-11-04T07:51:34.468Z,81.67
2018-11-04T07:54:02.594Z,81.22
2018-11-04T07:56:30.790Z,81.17
2018-11-04T07:58:58.995Z,81.93
2018-11-04T08:01:27.206Z,82.19
2018-11-04T08:03:55.462Z,81.61
2018-11-04T08:06:23.633Z,82.03
2018-11-04T08:08:51.811Z,82.28
2018-11-04T08:11:19.956Z,82.01
2018-11-04T08:13:48.115Z,81.36
2018-11-04T08:16:16.297Z,82.22
2018-11-04T08:18:44.468Z,81.50
2018-11-04T08:21:12.652Z,81.76
2018-11-04T08:23:40.774Z,82.30
2018-11-04T08:26:08.924Z,81.78
2018-11-04T08:28:37.079Z,81.94
2018-11-04T08:31:05.316Z,81.92
2018-11-04T08:33:33.468Z,81.89
2018-11-04T08:36:01.631Z,82.03
2018-11-04T08:38:29.803Z,83.15
2018-11-04T08:40:57.995Z,82.55
2018-11-04T08:43:26.158Z,82.48
2018-11-04T08:45:54.351Z,82.71
2018-11-04T08:48:22.483Z,82.23
2018-11-04T08:50:50.631Z,82.63
2018-11-04T08:53:18.776Z,83.14
2018-11-04T08:55:47.087Z,82.58
2018-11-04T08:58:15.245Z,83.31
2018-11-04T09:00:43.395Z,82.77
2018-11-04T09:03:11.608Z,83.03
2018-11-04T09:05:39.756Z,83.35
2018-11-04T09:08:07.930Z,83.84
2018-11-04T09:10:36.084Z,83.46
2018-11-04T09:13:04.234Z,82.89
2018-11-04T09:15:32.424Z,83.63
2018-11-04T09:18:00.618Z,82.93
2018-11-04T09:20:28.771Z,83.29
2018-11-04T09:22:56.934Z,83.50
2018-11-04T09:25:25.119Z,83.36
2018-11-04T09:27:53.317Z,82.82
2018-11-04T09:30:21.512Z,82.55
2018-11-04T09:32:49.641Z,82.97
2018-11-04T09:35:17.828Z,82.78
2018-11-04T09:37:45.951Z,83.09
2018-11-04T09:40:14.532Z,83.06
2018-11-04T09:42:42.673Z,82.63
2018-11-04T09:45:11.182Z,82.53
2018-11-04T09:47:39.863Z,83.14
2018-11-04T09:50:09.675Z,82.97
2018-11-04T09:52:37.914Z,82.82
2018-11-04T09:55:06.702Z,82.20
2018-11-04T09:57:34.878Z,81.81
2018-11-04T10:00:03.070Z,82.23
2018-11-04T10:02:31.263Z,82.35
2018-11-04T10:04:59.427Z,82.59
2018-11-04T10:07:27.587Z,82.30
2018-11-04T10:09:55.755Z,82.00
2018-11-04T10:12:23.897Z,82.60
2018-11-04T10:14:52.038Z,82.45
2018-11-04T10:17:20.190Z,82.60
2018-11-04T10:19:48.661Z,82.32
2018-11-04T10:22:16.506Z,81.93
2018-11-04T10:24:44.671Z,82.02
2018-11-04T10:27:12.852Z,81.85
2018-11-04T10:29:41.008Z,82.02
2018-11-04T10:32:09.204Z,82.07
2018-11-04T10:34:37.358Z,82.21
2018-11-04T10:37:06.082Z,82.47
2018-11-04T10:39:34.181Z,81.49
2018-11-04T10:42:02.351Z,82.01
2018-11-04T10:44:30.518Z,81.79
2018-11-04T10:46:58.688Z,81.24
2018-11-04T10:49:26.933Z,81.42
2018-11-04T10:51:55.016Z,81.29
2018-11-04T10:54:23.179Z,81.52
2018-11-04T10:56:51.342Z,81.63
2018-11-04T10:59:19.518Z,80.86
2018-11-04T11:01:47.672Z,80.82
2018-11-04T11:04:15.858Z,81.55
2018-11-04T11:06:44.052Z,81.38
2018-11-04T11:09:12.250Z,80.55
2018-11-04T11:11:40.955Z,81.24
2018-11-04T11:14:09.123Z,80.62
2018-11-04T11:16:37.287Z,80.33
2018-11-04T11:19:05.574Z,80.99
2018-11-04T11:21:33.772Z,80.49
2018-11-04T11:24:01.947Z,81.06
2018-11-04T11:26:30.123Z,80.96
2018-11-04T11:28:58.269Z,80.29
2018-11-04T11:31:26.427Z,80.97
2018-11-04T11:33:54.614Z,80.92
2018-11-04T11:36:22.758Z,79.84
2018-11-04T11:38:50.920Z,80.26
2018-11-04T11:41:19.117Z,79.97
2018-11-04T11:43:47.278Z,80.11
2018-11-04T11:46:15.431Z,81.07
2018-11-04T11:48:43.631Z,81.03
2018-11-04T11:51:11.790Z,80.49
2018-11-04T11:53:39.947Z,80.80
2018-11-04T11:56:08.138Z,80.65
2018-11-04T11:58:36.277Z,79.66
2018-11-04T12:01:04.775Z,79.50
2018-11-04T12:03:32.938Z,79.41
2018-11-04T12:06:01.131Z,80.21
2018-11-04T12:08:29.438Z,80.05
2018-11-04T12:10:57.605Z,80.18
2018-11-04T12:13:25.768Z,80.10
2018-11-04T12:15:53.922Z,79.78
2018-11-04T12:18:28.922Z,80.16
2018-11-04T12:20:57.076Z,79.04
2018-11-04T12:23:25.259Z,79.91
2018-11-04T12:25:53.694Z,78.79
2018-11-04T12:28:28.520Z,78.87
2018-11-04T12:30:56.688Z,79.11
2018-11-04T12:33:24.827Z,79.53
2018-11-04T12:35:53.038Z,79.73
2018-11-04T12:38:21.187Z,78.84
2018-11-04T12:40:49.375Z,78.03
2018-11-04T12:43:17.531Z,78.96
2018-11-04T12:45:45.726Z,79.04
2018-11-04T12:48:13.839Z,79.04
2018-11-04T12:50:41.981Z,77.72
2018-11-04T12:53:10.160Z,77.71
2018-11-04T12:55:38.351Z,77.63
2018-11-04T12:58:06.522Z,78.21
2018-11-04T13:00:34.694Z,78.13
2018-11-04T13:03:02.889Z,78.26
2018-11-04T13:05:31.068Z,77.55
2018-11-04T13:07:59.257Z,78.24
2018-11-04T13:10:27.431Z,78.08
2018-11-04T13:12:55.595Z,78.83
2018-11-04T13:15:30.312Z,78.75
2018-11-04T13:17:58.693Z,78.19
2018-11-04T13:20:26.853Z,78.35
2018-11-04T13:22:55.004Z,77.90
2018-11-04T13:25:23.159Z,77.88
2018-11-04T13:27:51.307Z,77.74
2018-11-04T13:30:19.585Z,78.22
2018-11-04T13:32:47.730Z,78.64
2018-11-04T13:35:15.890Z,78.61
2018-11-04T13:37:44.103Z,77.60
2018-11-04T13:40:12.663Z,78.47
2018-11-04T13:42:41.336Z,77.72
2018-11-04T13:45:10.110Z,77.48
2018-11-04T13:47:38.507Z,77.46
2018-11-04T13:50:08.664Z,78.13
2018-11-04T13:52:36.886Z,77.70
2018-11-04T13:55:05.427Z,78.50
2018-11-04T13:57:33.599Z,78.27
2018-11-04T14:00:01.807Z,77.59
2018-11-04T14:02:30.009Z,78.21
2018-11-04T14:04:58.154Z,77.79
2018-11-04T14:07:26.352Z,77.17
2018-11-04T14:09:54.565Z,77.53
2018-11-04T14:12:22.739Z,77.33
2018-11-04T14:14:50.911Z,76.85
2018-11-04T14:17:19.109Z,77.66
2018-11-04T14:19:47.282Z,77.96
2018-11-04T14:22:15.437Z,77.27
2018-11-04T14:24:43.588Z,76.99
2018-11-04T14:27:11.790Z,76.82
2018-11-04T14:29:39.954Z,76.79
2018-11-04T14:32:08.123Z,76.67
2018-11-04T14:34:36.396Z,77.32
2018-11-04T14:37:04.551Z,77.42
2018-11-04T14:39:32.702Z,77.22
2018-11-04T14:42:00.862Z,76.95
2018-11-04T14:44:29.052Z,76.94
2018-11-04T14:46:57.235Z,76.61
2018-11-04T14:49:25.379Z,76.89
2018-11-04T14:51:53.567Z,76.29
2018-11-04T14:54:21.728Z,76.56
2018-11-04T14:56:49.935Z,77.09
2018-11-04T14:59:18.089Z,77.38
2018-11-04T15:01:46.463Z,77.48
2018-11-04T15:04:14.421Z,77.00
2018-11-04T15:06:42.624Z,76.36
2018-11-04T15:09:10.840Z,77.64
2018-11-04T15:11:39.054Z,76.74
2018-11-04T15:14:07.220Z,77.52
2018-11-04T15:16:35.401Z,76.82
2018-11-04T15:19:03.616Z,77.53
2018-11-04T15:21:31.764Z,77.97
2018-11-04T15:23:59.917Z,77.62
2018-11-04T15:26:28.137Z,77.57
2018-11-04T15:28:56.244Z,76.74
2018-11-04T15:31:24.419Z,76.48
2018-11-04T15:33:52.637Z,76.07
2018-11-04T15:36:20.774Z,76.36
2018-11-04T15:38:48.954Z,76.76
2018-11-04T15:41:17.130Z,77.01
2018-11-04T15:43:45.312Z,76.75
2018-11-04T15:46:13.496Z,76.75
2018-11-04T15:48:41.708Z,77.11
2018-11-04T15:51:09.882Z,76.54
2018-11-04T15:53:38.067Z,77.25
2018-11-04T15:56:06.279Z,76.86
2018-11-04T15:58:34.771Z,77.15
2018-11-04T16:01:02.921Z,77.40
2018-11-04T16:03:31.108Z,76.87
2018-11-04T16:05:59.308Z,77.16
2018-11-04T16:08:27.432Z,77.11
2018-11-04T16:13:57.295Z,78.01
2018-11-04T16:16:42.297Z,78.30
2018-11-04T16:27:25.103Z,77.83
2018-11-04T16:32:32.270Z,78.31
2018-11-04T16:49:12.787Z,79.60
2018-11-04T16:51:40.944Z,79.49
2018-11-04T16:54:09.121Z,78.51
2018-11-04T16:56:37.407Z,78.89
2018-11-04T16:59:05.995Z,78.79
2018-11-04T17:01:34.150Z,79.01
2018-11-04T17:04:02.455Z,79.75
2018-11-04T17:06:30.590Z,79.46
2018-11-04T17:08:58.690Z,78.94
2018-11-04T17:11:26.947Z,79.85
2018-11-04T17:13:55.115Z,79.98
2018-11-04T17:16:23.291Z,79.52
2018-11-04T17:18:51.478Z,79.35
2018-11-04T17:21:19.639Z,79.38
2018-11-04T17:23:47.790Z,80.13
2018-11-04T17:26:15.967Z,80.24
2018-11-04T17:28:44.120Z,80.13
2018-11-04T17:31:12.415Z,79.57
2018-11-04T17:33:40.556Z,79.49
2018-11-04T17:36:08.812Z,79.31
2018-11-04T17:38:36.892Z,80.32
2018-11-04T17:41:05.051Z,79.79
2018-11-04T17:43:33.219Z,80.38
2018-11-04T17:46:01.382Z,80.02
2018-11-04T17:48:29.539Z,79.95
2018-11-04T17:50:57.709Z,79.52
2018-11-04T17:53:25.952Z,80.25
2018-11-04T17:55:54.092Z,79.65
2018-11-04T17:58:22.243Z,79.55
2018-11-04T18:00:50.445Z,80.12
2018-11-04T18:03:18.609Z,80.17
2018-11-04T18:05:46.764Z,80.74
2018-11-04T18:08:14.956Z,80.03
2018-11-04T18:10:43.163Z,80.84
2018-11-04T18:13:11.360Z,80.15
2018-11-04T18:15:39.540Z,79.93
2018-11-04T18:18:07.699Z,80.03
2018-11-04T18:20:35.863Z,80.16
2018-11-04T18:23:04.011Z,80.21
2018-11-04T18:25:32.168Z,80.47
2018-11-04T18:28:00.372Z,80.93
2018-11-04T18:30:28.510Z,80.29
2018-11-04T18:32:56.675Z,80.43
2018-11-04T18:35:24.838Z,80.61
2018-11-04T18:37:53.034Z,80.84
2018-11-04T18:40:21.186Z,81.05
2018-11-04T18:42:49.359Z,80.88
2018-11-04T18:45:18.005Z,81.05
2018-11-04T18:47:46.248Z,81.24
2018-11-04T18:50:15.188Z,80.49
2018-11-04T18:52:43.412Z,81.08
2018-11-04T18:55:12.420Z,80.71
2018-11-04T18:57:41.323Z,81.63
2018-11-04T19:00:12.148Z,80.83
2018-11-04T19:02:40.422Z,81.11
2018-11-04T19:05:09.236Z,81.14
2018-11-04T19:07:37.670Z,80.75
2018-11-04T19:10:07.728Z,81.30
2018-11-04T19:12:35.879Z,81.93
2018-11-04T19:15:04.098Z,81.36
2018-11-04T19:17:32.283Z,81.01
2018-11-04T19:20:00.447Z,81.69
2018-11-04T19:22:28.597Z,81.32
2018-11-04T19:24:56.772Z,81.11
2018-11-04T19:27:24.934Z,81.05
2018-11-04T19:29:53.146Z,81.67
2018-11-04T19:32:21.300Z,81.55
2018-11-04T19:34:49.966Z,81.95
2018-11-04T19:37:18.113Z,82.28
2018-11-04T19:39:46.292Z,82.35
2018-11-04T19:42:14.478Z,82.30
2018-11-04T19:44:42.642Z,82.58
2018-11-04T19:47:10.794Z,82.45
2018-11-04T19:49:38.959Z,82.19
2018-11-04T19:52:07.121Z,82.53
2018-11-04T19:54:35.343Z,81.59
2018-11-04T19:57:03.483Z,82.15
2018-11-04T19:59:31.699Z,81.99
2018-11-04T20:01:59.887Z,82.16
2018-11-04T20:04:28.083Z,81.49
2018-11-04T20:06:56.267Z,81.39
2018-11-04T20:09:24.428Z,81.19
2018-11-04T20:11:52.596Z,81.30
2018-11-04T20:14:22.144Z,82.13
2018-11-04T20:16:51.338Z,81.73
2018-11-04T20:19:24.880Z,82.14
2018-11-04T20:21:53.623Z,81.43
2018-11-04T20:24:27.099Z,81.81
2018-11-04T20:26:55.263Z,82.06
2018-11-04T20:29:23.778Z,82.24
2018-11-04T20:31:57.098Z,82.10
2018-11-04T20:34:25.271Z,81.85
2018-11-04T20:36:53.470Z,82.83
2018-11-04T20:39:27.024Z,82.08
2018-11-04T20:41:55.151Z,82.45
2018-11-04T20:44:29.978Z,82.93
2018-11-04T20:46:58.171Z,82.61
2018-11-04T20:49:31.567Z,82.73
2018-11-04T20:51:59.806Z,83.03
2018-11-04T20:54:27.970Z,82.19
2018-11-04T20:57:01.339Z,82.47
2018-11-04T20:59:29.503Z,82.93
2018-11-04T21:01:57.723Z,83.30
2018-11-04T21:04:25.820Z,82.94
2018-11-04T21:06:54.011Z,83.16
2018-11-04T21:09:22.180Z,83.41
2018-11-04T21:11:50.340Z,83.16
2018-11-04T21:14:18.549Z,83.52
2018-11-04T21:16:46.855Z,83.43
2018-11-04T21:19:14.819Z,82.81
2018-11-04T21:21:43.047Z,82.71
2018-11-04T21:24:11.170Z,83.16
2018-11-04T21:26:39.398Z,82.97
2018-11-04T21:29:08.555Z,83.11
2018-11-04T21:31:36.536Z,83.29
2018-11-04T21:34:04.917Z,83.03
2018-11-04T21:36:33.260Z,83.20
2018-11-04T21:39:01.292Z,83.28
2018-11-04T21:41:29.433Z,82.77
2018-11-04T21:43:57.808Z,82.98
2018-11-04T21:46:25.811Z,82.87
2018-11-04T21:48:53.979Z,82.92
2018-11-04T21:51:22.131Z,82.87
2018-11-04T21:53:50.344Z,83.47
2018-11-04T21:56:18.622Z,83.11
2018-11-04T21:58:46.707Z,83.06
2018-11-04T22:01:14.859Z,83.16
2018-11-04T22:03:43.119Z,83.43
2018-11-04T22:06:11.168Z,82.82
2018-11-04T22:08:39.308Z,83.16
2018-11-04T22:11:07.474Z,83.49
2018-11-04T22:13:35.655Z,83.47
2018-11-04T22:16:03.782Z,82.86
2018-11-04T22:18:31.947Z,83.27
2018-11-04T22:21:00.144Z,82.75
2018-11-04T22:23:28.258Z,82.67
2018-11-04T22:25:56.415Z,82.95
2018-11-04T22:28:24.546Z,82.76
2018-11-04T22:30:52.718Z,82.43
2018-11-04T22:33:20.883Z,82.64
2018-11-04T22:35:49.039Z,82.22
2018-11-04T22:38:17.191Z,82.38
2018-11-04T22:40:45.507Z,82.47
2018-11-04T22:43:13.715Z,82.30
2018-11-04T22:45:41.859Z,82.12
2018-11-04T22:48:10.015Z,82.35
2018-11-04T22:50:38.171Z,83.11
2018-11-04T22:53:06.331Z,82.46
2018-11-04T22:55:34.490Z,82.11
2018-11-04T22:58:04.910Z,82.50
2018-11-04T23:00:38.915Z,82.96
2018-11-04T23:03:07.080Z,82.88
2018-11-04T23:05:35.245Z,81.99
2018-11-04T23:08:03.543Z,82.40
2018-11-04T23:10:31.721Z,82.66
2018-11-04T23:12:59.858Z,82.59
2018-11-04T23:15:28.011Z,81.67
2018-11-04T23:17:56.168Z,82.56
2018-11-04T23:20:24.366Z,82.24
2018-11-04T23:22:52.520Z,81.61
2018-11-04T23:25:20.669Z,82.10
2018-11-04T23:27:48.806Z,81.89
2018-11-04T23:30:18.231Z,81.53
2018-11-04T23:32:46.783Z,81.52
2018-11-04T23:35:14.956Z,81.13
2018-11-04T23:37:43.886Z,81.12
2018-11-04T23:40:12.366Z,81.16
2018-11-04T23:42:40.537Z,81.32
2018-11-04T23:45:10.230Z,81.46
2018-11-04T23:47:38.528Z,81.67
2018-11-04T23:50:09.870Z,82.00
2018-11-04T23:52:38.031Z,81.87
2018-11-04T23:55:06.818Z,81.88
2018-11-04T23:57:34.992Z,81.39
